sensor_id;sensor_type;location;lat;lon;timestamp;pressure;altitude;pressure_sealevel;temperature;humidity
39243;BME280;29823;47.404;8.566;2023-05-20T00:01:04;96421.81;;;11.93;100.00
39243;BME280;29823;47.404;8.566;2023-05-20T00:03:32;96430.91;;;11.92;100.00
39243;BME280;29823;47.404;8.566;2023-05-20T00:06:00;96423.53;;;11.99;100.00
39243;BME280;29823;47.404;8.566;2023-05-20T00:08:29;96422.47;;;12.00;100.00
39243;BME280;29823;47.404;8.566;2023-05-20T00:10:56;96420.78;;;11.94;100.00
39243;BME280;29823;47.404;8.566;2023-05-20T00:13:26;96424.41;;;11.88;100.00
39243;BME280;29823;47.404;8.566;2023-05-20T00:15:54;96423.69;;;11.93;100.00
39243;BME280;29823;47.404;8.566;2023-05-20T00:18:21;96422.53;;;11.89;100.00
39243;BME280;29823;47.404;8.566;2023-05-20T00:20:50;96420.28;;;11.97;100.00
39243;BME280;29823;47.404;8.566;2023-05-20T00:23:19;96422.31;;;11.90;100.00
39243;BME280;29823;47.404;8.566;2023-05-20T00:25:48;96408.81;;;11.85;100.00
39243;BME280;29823;47.404;8.566;2023-05-20T00:28:16;96409.78;;;11.79;100.00
39243;BME280;29823;47.404;8.566;2023-05-20T00:30:46;96405.97;;;11.75;100.00
39243;BME280;29823;47.404;8.566;2023-05-20T00:33:14;96398.69;;;11.59;100.00
39243;BME280;29823;47.404;8.566;2023-05-20T00:35:42;96403.19;;;11.70;100.00
39243;BME280;29823;47.404;8.566;2023-05-20T00:38:10;96407.16;;;11.68;100.00
39243;BME280;29823;47.404;8.566;2023-05-20T00:40:38;96403.84;;;11.49;100.00
39243;BME280;29823;47.404;8.566;2023-05-20T00:43:05;96407.66;;;11.53;100.00
39243;BME280;29823;47.404;8.566;2023-05-20T00:45:33;96404.53;;;11.56;100.00
39243;BME280;29823;47.404;8.566;2023-05-20T00:48:03;96402.63;;;11.68;100.00
39243;BME280;29823;47.404;8.566;2023-05-20T00:50:32;96390.53;;;11.66;100.00
39243;BME280;29823;47.404;8.566;2023-05-20T00:53:01;96394.91;;;11.72;100.00
39243;BME280;29823;47.404;8.566;2023-05-20T00:55:29;96382.81;;;11.69;100.00
39243;BME280;29823;47.404;8.566;2023-05-20T00:57:58;96371.06;;;11.70;100.00
39243;BME280;29823;47.404;8.566;2023-05-20T01:00:26;96380.56;;;11.78;100.00
39243;BME280;29823;47.404;8.566;2023-05-20T01:02:54;96382.09;;;11.74;100.00
39243;BME280;29823;47.404;8.566;2023-05-20T01:05:24;96383.88;;;11.68;100.00
39243;BME280;29823;47.404;8.566;2023-05-20T01:07:52;96385.91;;;11.61;100.00
39243;BME280;29823;47.404;8.566;2023-05-20T01:10:21;96380.88;;;11.53;100.00
39243;BME280;29823;47.404;8.566;2023-05-20T01:12:53;96357.28;;;11.22;100.00
39243;BME280;29823;47.404;8.566;2023-05-20T01:15:24;96372.97;;;11.30;100.00
39243;BME280;29823;47.404;8.566;2023-05-20T01:17:59;96370.19;;;11.25;100.00
39243;BME280;29823;47.404;8.566;2023-05-20T01:20:29;96367.22;;;11.10;100.00
39243;BME280;29823;47.404;8.566;2023-05-20T01:23:00;96374.91;;;11.07;100.00
39243;BME280;29823;47.404;8.566;2023-05-20T01:25:28;96374.09;;;11.06;100.00
39243;BME280;29823;47.404;8.566;2023-05-20T01:27:56;96362.88;;;10.81;100.00
39243;BME280;29823;47.404;8.566;2023-05-20T01:30:29;96373.47;;;10.76;100.00
39243;BME280;29823;47.404;8.566;2023-05-20T01:33:01;96373.59;;;10.58;100.00
39243;BME280;29823;47.404;8.566;2023-05-20T01:35:33;96373.59;;;10.58;100.00
39243;BME280;29823;47.404;8.566;2023-05-20T01:38:04;96373.59;;;10.58;100.00
39243;BME280;29823;47.404;8.566;2023-05-20T01:40:33;96366.41;;;10.47;100.00
39243;BME280;29823;47.404;8.566;2023-05-20T01:43:02;96353.41;;;10.51;100.00
39243;BME280;29823;47.404;8.566;2023-05-20T01:45:30;96349.53;;;10.58;100.00
39243;BME280;29823;47.404;8.566;2023-05-20T01:47:58;96377.66;;;10.72;100.00
39243;BME280;29823;47.404;8.566;2023-05-20T01:50:27;96380.59;;;10.59;100.00
39243;BME280;29823;47.404;8.566;2023-05-20T01:52:55;96377.34;;;10.57;100.00
39243;BME280;29823;47.404;8.566;2023-05-20T01:55:24;96354.69;;;10.48;100.00
39243;BME280;29823;47.404;8.566;2023-05-20T01:57:52;96359.66;;;10.56;100.00
39243;BME280;29823;47.404;8.566;2023-05-20T02:00:20;96358.00;;;10.67;100.00
39243;BME280;29823;47.404;8.566;2023-05-20T02:02:48;96354.75;;;10.76;100.00
39243;BME280;29823;47.404;8.566;2023-05-20T02:05:16;96347.91;;;10.69;100.00
39243;BME280;29823;47.404;8.566;2023-05-20T02:07:44;96340.84;;;10.63;100.00
39243;BME280;29823;47.404;8.566;2023-05-20T02:10:12;96343.84;;;10.66;100.00
39243;BME280;29823;47.404;8.566;2023-05-20T02:12:41;96337.00;;;10.59;100.00
39243;BME280;29823;47.404;8.566;2023-05-20T02:15:10;96338.75;;;10.53;100.00
39243;BME280;29823;47.404;8.566;2023-05-20T02:17:38;96346.75;;;10.53;100.00
39243;BME280;29823;47.404;8.566;2023-05-20T02:20:09;96344.09;;;10.53;100.00
39243;BME280;29823;47.404;8.566;2023-05-20T02:22:39;96345.97;;;10.41;100.00
39243;BME280;29823;47.404;8.566;2023-05-20T02:25:08;96339.00;;;10.40;100.00
39243;BME280;29823;47.404;8.566;2023-05-20T02:27:36;96335.41;;;10.23;100.00
39243;BME280;29823;47.404;8.566;2023-05-20T02:30:07;96350.06;;;10.21;100.00
39243;BME280;29823;47.404;8.566;2023-05-20T02:32:36;96340.53;;;10.13;100.00
39243;BME280;29823;47.404;8.566;2023-05-20T02:35:04;96330.06;;;10.00;100.00
39243;BME280;29823;47.404;8.566;2023-05-20T02:37:32;96322.72;;;9.84;100.00
39243;BME280;29823;47.404;8.566;2023-05-20T02:40:00;96346.88;;;9.89;100.00
39243;BME280;29823;47.404;8.566;2023-05-20T02:42:28;96345.22;;;9.88;100.00
39243;BME280;29823;47.404;8.566;2023-05-20T02:44:56;96351.16;;;9.79;100.00
39243;BME280;29823;47.404;8.566;2023-05-20T02:47:26;96352.41;;;9.76;100.00
39243;BME280;29823;47.404;8.566;2023-05-20T02:49:54;96356.59;;;9.72;100.00
39243;BME280;29823;47.404;8.566;2023-05-20T02:52:22;96352.16;;;9.66;100.00
39243;BME280;29823;47.404;8.566;2023-05-20T02:54:50;96356.34;;;9.62;100.00
39243;BME280;29823;47.404;8.566;2023-05-20T02:57:18;96365.84;;;9.58;100.00
39243;BME280;29823;47.404;8.566;2023-05-20T02:59:46;96369.44;;;9.64;100.00
39243;BME280;29823;47.404;8.566;2023-05-20T03:02:14;96359.69;;;9.58;100.00
39243;BME280;29823;47.404;8.566;2023-05-20T03:04:43;96347.50;;;9.50;100.00
39243;BME280;29823;47.404;8.566;2023-05-20T03:07:13;96352.25;;;9.48;100.00
39243;BME280;29823;47.404;8.566;2023-05-20T03:09:44;96344.16;;;9.55;100.00
39243;BME280;29823;47.404;8.566;2023-05-20T03:12:12;96347.50;;;9.50;100.00
39243;BME280;29823;47.404;8.566;2023-05-20T03:14:40;96337.84;;;9.38;100.00
39243;BME280;29823;47.404;8.566;2023-05-20T03:17:08;96353.28;;;9.47;100.00
39243;BME280;29823;47.404;8.566;2023-05-20T03:19:37;96351.19;;;9.49;100.00
39243;BME280;29823;47.404;8.566;2023-05-20T03:22:06;96345.56;;;9.57;100.00
39243;BME280;29823;47.404;8.566;2023-05-20T03:24:34;96342.75;;;9.64;100.00
39243;BME280;29823;47.404;8.566;2023-05-20T03:27:02;96333.13;;;9.51;100.00
39243;BME280;29823;47.404;8.566;2023-05-20T03:29:30;96335.91;;;9.56;100.00
39243;BME280;29823;47.404;8.566;2023-05-20T03:31:59;96326.75;;;9.52;100.00
39243;BME280;29823;47.404;8.566;2023-05-20T03:34:27;96338.94;;;9.60;100.00
39243;BME280;29823;47.404;8.566;2023-05-20T03:36:55;96327.56;;;9.64;100.00
39243;BME280;29823;47.404;8.566;2023-05-20T03:39:27;96322.31;;;9.58;100.00
39243;BME280;29823;47.404;8.566;2023-05-20T03:41:55;96337.41;;;9.52;100.00
39243;BME280;29823;47.404;8.566;2023-05-20T03:44:22;96336.81;;;9.50;100.00
39243;BME280;29823;47.404;8.566;2023-05-20T03:46:50;96325.69;;;9.53;100.00
39243;BME280;29823;47.404;8.566;2023-05-20T03:49:18;96327.31;;;9.54;100.00
39243;BME280;29823;47.404;8.566;2023-05-20T03:51:46;96329.84;;;9.49;100.00
39243;BME280;29823;47.404;8.566;2023-05-20T03:54:14;96339.06;;;9.65;100.00
39243;BME280;29823;47.404;8.566;2023-05-20T03:56:44;96331.63;;;9.67;100.00
39243;BME280;29823;47.404;8.566;2023-05-20T03:59:13;96322.59;;;9.68;100.00
39243;BME280;29823;47.404;8.566;2023-05-20T04:01:41;96347.44;;;9.80;100.00
39243;BME280;29823;47.404;8.566;2023-05-20T04:04:09;96344.09;;;9.84;100.00
39243;BME280;29823;47.404;8.566;2023-05-20T04:06:37;96345.00;;;9.90;100.00
39243;BME280;29823;47.404;8.566;2023-05-20T04:09:05;96341.31;;;10.02;100.00
39243;BME280;29823;47.404;8.566;2023-05-20T04:11:33;96326.34;;;10.01;100.00
39243;BME280;29823;47.404;8.566;2023-05-20T04:14:02;96320.66;;;9.98;100.00
39243;BME280;29823;47.404;8.566;2023-05-20T04:16:30;96331.94;;;10.11;100.00
39243;BME280;29823;47.404;8.566;2023-05-20T04:18:59;96331.56;;;10.19;100.00
39243;BME280;29823;47.404;8.566;2023-05-20T04:21:28;96342.03;;;10.21;100.00
39243;BME280;29823;47.404;8.566;2023-05-20T04:23:56;96338.53;;;10.20;100.00
39243;BME280;29823;47.404;8.566;2023-05-20T04:26:24;96339.94;;;10.23;100.00
39243;BME280;29823;47.404;8.566;2023-05-20T04:28:52;96348.53;;;10.36;100.00
39243;BME280;29823;47.404;8.566;2023-05-20T04:31:22;96350.84;;;10.44;100.00
39243;BME280;29823;47.404;8.566;2023-05-20T04:33:52;96355.03;;;10.52;100.00
39243;BME280;29823;47.404;8.566;2023-05-20T04:36:20;96348.38;;;10.66;100.00
39243;BME280;29823;47.404;8.566;2023-05-20T04:38:48;96345.06;;;10.87;100.00
39243;BME280;29823;47.404;8.566;2023-05-20T04:41:16;96343.44;;;10.86;100.00
39243;BME280;29823;47.404;8.566;2023-05-20T04:43:44;96344.72;;;10.83;100.00
39243;BME280;29823;47.404;8.566;2023-05-20T04:46:11;96337.22;;;11.08;100.00
39243;BME280;29823;47.404;8.566;2023-05-20T04:48:41;96338.06;;;11.25;100.00
39243;BME280;29823;47.404;8.566;2023-05-20T04:51:09;96347.00;;;11.31;100.00
39243;BME280;29823;47.404;8.566;2023-05-20T04:53:37;96342.22;;;11.33;100.00
39243;BME280;29823;47.404;8.566;2023-05-20T04:56:06;96332.41;;;11.38;100.00
39243;BME280;29823;47.404;8.566;2023-05-20T04:58:33;96326.69;;;11.46;100.00
39243;BME280;29823;47.404;8.566;2023-05-20T05:01:01;96333.25;;;11.55;100.00
39243;BME280;29823;47.404;8.566;2023-05-20T05:03:29;96332.84;;;11.75;100.00
39243;BME280;29823;47.404;8.566;2023-05-20T05:05:58;96328.78;;;11.72;100.00
39243;BME280;29823;47.404;8.566;2023-05-20T05:08:26;96324.88;;;11.80;100.00
39243;BME280;29823;47.404;8.566;2023-05-20T05:10:54;96327.81;;;11.78;100.00
39243;BME280;29823;47.404;8.566;2023-05-20T05:13:23;96330.78;;;11.98;100.00
39243;BME280;29823;47.404;8.566;2023-05-20T05:15:57;96317.00;;;12.06;100.00
39243;BME280;29823;47.404;8.566;2023-05-20T05:18:25;96319.59;;;12.01;100.00
39243;BME280;29823;47.404;8.566;2023-05-20T05:21:02;96316.31;;;12.32;100.00
39243;BME280;29823;47.404;8.566;2023-05-20T05:23:31;96316.88;;;12.34;100.00
39243;BME280;29823;47.404;8.566;2023-05-20T05:25:59;96312.72;;;12.43;100.00
39243;BME280;29823;47.404;8.566;2023-05-20T05:28:27;96316.16;;;12.60;100.00
39243;BME280;29823;47.404;8.566;2023-05-20T05:30:55;96301.22;;;12.64;100.00
39243;BME280;29823;47.404;8.566;2023-05-20T05:33:23;96316.69;;;12.79;100.00
39243;BME280;29823;47.404;8.566;2023-05-20T05:35:51;96313.69;;;12.75;100.00
39243;BME280;29823;47.404;8.566;2023-05-20T05:38:21;96316.31;;;12.70;100.00
39243;BME280;29823;47.404;8.566;2023-05-20T05:40:48;96307.28;;;12.60;100.00
39243;BME280;29823;47.404;8.566;2023-05-20T05:43:16;96306.31;;;12.87;100.00
39243;BME280;29823;47.404;8.566;2023-05-20T05:45:44;96304.94;;;13.06;100.00
39243;BME280;29823;47.404;8.566;2023-05-20T05:48:12;96289.41;;;13.08;100.00
39243;BME280;29823;47.404;8.566;2023-05-20T05:50:43;96303.00;;;13.23;100.00
39243;BME280;29823;47.404;8.566;2023-05-20T05:53:11;96315.97;;;13.31;100.00
39243;BME280;29823;47.404;8.566;2023-05-20T05:55:40;96316.63;;;13.43;100.00
39243;BME280;29823;47.404;8.566;2023-05-20T05:58:08;96316.06;;;13.41;100.00
39243;BME280;29823;47.404;8.566;2023-05-20T06:00:35;96316.44;;;13.50;100.00
39243;BME280;29823;47.404;8.566;2023-05-20T06:03:03;96307.41;;;13.34;100.00
39243;BME280;29823;47.404;8.566;2023-05-20T06:05:31;96319.34;;;13.48;100.00
39243;BME280;29823;47.404;8.566;2023-05-20T06:08:00;96319.41;;;13.53;100.00
39243;BME280;29823;47.404;8.566;2023-05-20T06:10:27;96317.06;;;13.62;100.00
39243;BME280;29823;47.404;8.566;2023-05-20T06:12:57;96308.22;;;13.61;100.00
39243;BME280;29823;47.404;8.566;2023-05-20T06:15:24;96305.44;;;13.51;100.00
39243;BME280;29823;47.404;8.566;2023-05-20T06:17:52;96294.44;;;13.53;100.00
39243;BME280;29823;47.404;8.566;2023-05-20T06:20:20;96293.13;;;13.55;100.00
39243;BME280;29823;47.404;8.566;2023-05-20T06:22:48;96299.97;;;13.73;100.00
39243;BME280;29823;47.404;8.566;2023-05-20T06:25:16;96291.91;;;13.73;100.00
39243;BME280;29823;47.404;8.566;2023-05-20T06:27:44;96284.59;;;14.00;100.00
39243;BME280;29823;47.404;8.566;2023-05-20T06:30:13;96278.16;;;14.01;100.00
39243;BME280;29823;47.404;8.566;2023-05-20T06:32:41;96274.88;;;14.30;100.00
39243;BME280;29823;47.404;8.566;2023-05-20T06:35:09;96275.22;;;14.39;100.00
39243;BME280;29823;47.404;8.566;2023-05-20T06:37:37;96267.91;;;14.29;100.00
39243;BME280;29823;47.404;8.566;2023-05-20T06:40:06;96261.56;;;14.50;100.00
39243;BME280;29823;47.404;8.566;2023-05-20T06:42:34;96266.06;;;14.35;100.00
39243;BME280;29823;47.404;8.566;2023-05-20T06:45:02;96263.78;;;14.63;100.00
39243;BME280;29823;47.404;8.566;2023-05-20T06:47:32;96258.16;;;14.70;100.00
39243;BME280;29823;47.404;8.566;2023-05-20T06:50:00;96264.31;;;14.65;100.00
39243;BME280;29823;47.404;8.566;2023-05-20T06:52:28;96277.69;;;14.50;100.00
39243;BME280;29823;47.404;8.566;2023-05-20T06:54:56;96281.47;;;14.49;100.00
39243;BME280;29823;47.404;8.566;2023-05-20T06:57:23;96276.38;;;14.53;100.00
39243;BME280;29823;47.404;8.566;2023-05-20T06:59:51;96278.88;;;14.69;100.00
39243;BME280;29823;47.404;8.566;2023-05-20T07:02:20;96278.34;;;14.72;100.00
39243;BME280;29823;47.404;8.566;2023-05-20T07:04:49;96284.22;;;14.59;100.00
39243;BME280;29823;47.404;8.566;2023-05-20T07:07:17;96282.22;;;14.40;100.00
39243;BME280;29823;47.404;8.566;2023-05-20T07:09:45;96277.88;;;14.34;100.00
39243;BME280;29823;47.404;8.566;2023-05-20T07:12:12;96273.47;;;14.64;100.00
39243;BME280;29823;47.404;8.566;2023-05-20T07:14:41;96272.94;;;14.67;100.00
39243;BME280;29823;47.404;8.566;2023-05-20T07:17:10;96275.66;;;14.72;100.00
39243;BME280;29823;47.404;8.566;2023-05-20T07:19:38;96268.34;;;14.63;100.00
39243;BME280;29823;47.404;8.566;2023-05-20T07:22:07;96257.09;;;14.76;100.00
39243;BME280;29823;47.404;8.566;2023-05-20T07:24:35;96256.56;;;14.79;100.00
39243;BME280;29823;47.404;8.566;2023-05-20T07:27:03;96252.31;;;14.88;100.00
39243;BME280;29823;47.404;8.566;2023-05-20T07:29:31;96256.34;;;14.85;100.00
39243;BME280;29823;47.404;8.566;2023-05-20T07:31:59;96250.19;;;14.95;100.00
39243;BME280;29823;47.404;8.566;2023-05-20T07:34:27;96260.22;;;15.24;100.00
39243;BME280;29823;47.404;8.566;2023-05-20T07:36:55;96248.44;;;15.40;100.00
39243;BME280;29823;47.404;8.566;2023-05-20T07:39:25;96271.84;;;15.35;100.00
39243;BME280;29823;47.404;8.566;2023-05-20T07:41:53;96261.28;;;15.18;100.00
39243;BME280;29823;47.404;8.566;2023-05-20T07:44:21;96252.91;;;15.10;100.00
39243;BME280;29823;47.404;8.566;2023-05-20T07:46:49;96253.53;;;15.37;100.00
39243;BME280;29823;47.404;8.566;2023-05-20T07:49:17;96248.94;;;15.37;100.00
39243;BME280;29823;47.404;8.566;2023-05-20T07:51:45;96241.94;;;15.36;100.00
39243;BME280;29823;47.404;8.566;2023-05-20T07:54:13;96242.22;;;15.50;100.00
39243;BME280;29823;47.404;8.566;2023-05-20T07:56:42;96246.00;;;15.49;100.00
39243;BME280;29823;47.404;8.566;2023-05-20T07:59:10;96241.09;;;15.26;100.00
39243;BME280;29823;47.404;8.566;2023-05-20T08:01:40;96245.75;;;15.55;100.00
39243;BME280;29823;47.404;8.566;2023-05-20T08:04:08;96241.88;;;15.16;100.00
39243;BME280;29823;47.404;8.566;2023-05-20T08:06:36;96233.06;;;15.51;100.00
39243;BME280;29823;47.404;8.566;2023-05-20T08:09:05;96226.59;;;15.52;100.00
39243;BME280;29823;47.404;8.566;2023-05-20T08:11:33;96238.72;;;15.69;100.00
39243;BME280;29823;47.404;8.566;2023-05-20T08:14:02;96240.34;;;15.95;100.00
39243;BME280;29823;47.404;8.566;2023-05-20T08:16:30;96239.22;;;15.31;100.00
39243;BME280;29823;47.404;8.566;2023-05-20T08:18:58;96232.81;;;15.57;100.00
39243;BME280;29823;47.404;8.566;2023-05-20T08:21:26;96219.03;;;15.79;100.00
39243;BME280;29823;47.404;8.566;2023-05-20T08:23:54;96238.72;;;15.79;100.00
39243;BME280;29823;47.404;8.566;2023-05-20T08:26:22;96224.72;;;15.82;100.00
39243;BME280;29823;47.404;8.566;2023-05-20T08:28:50;96241.69;;;15.93;100.00
39243;BME280;29823;47.404;8.566;2023-05-20T08:31:19;96238.72;;;15.59;100.00
39243;BME280;29823;47.404;8.566;2023-05-20T08:33:47;96237.94;;;15.64;100.00
39243;BME280;29823;47.404;8.566;2023-05-20T08:36:15;96241.44;;;15.74;100.00
39243;BME280;29823;47.404;8.566;2023-05-20T08:38:44;96239.78;;;15.48;100.00
39243;BME280;29823;47.404;8.566;2023-05-20T08:41:12;96245.94;;;15.29;100.00
39243;BME280;29823;47.404;8.566;2023-05-20T08:43:41;96227.94;;;15.34;100.00
39243;BME280;29823;47.404;8.566;2023-05-20T08:46:09;96234.41;;;15.48;100.00
39243;BME280;29823;47.404;8.566;2023-05-20T08:48:39;96244.06;;;15.29;100.00
39243;BME280;29823;47.404;8.566;2023-05-20T08:51:08;96236.56;;;15.36;100.00
39243;BME280;29823;47.404;8.566;2023-05-20T08:53:36;96239.97;;;15.12;100.00
39243;BME280;29823;47.404;8.566;2023-05-20T08:56:05;96236.50;;;15.26;100.00
39243;BME280;29823;47.404;8.566;2023-05-20T08:58:33;96231.13;;;15.26;100.00
39243;BME280;29823;47.404;8.566;2023-05-20T09:01:01;96238.13;;;15.17;100.00
39243;BME280;29823;47.404;8.566;2023-05-20T09:03:28;96226.56;;;15.27;100.00
39243;BME280;29823;47.404;8.566;2023-05-20T09:06:04;96226.31;;;15.38;100.00
39243;BME280;29823;47.404;8.566;2023-05-20T09:08:32;96224.19;;;15.55;100.00
39243;BME280;29823;47.404;8.566;2023-05-20T09:11:00;96231.16;;;15.86;100.00
39243;BME280;29823;47.404;8.566;2023-05-20T09:13:29;96229.56;;;15.95;100.00
39243;BME280;29823;47.404;8.566;2023-05-20T09:15:59;96207.34;;;16.38;100.00
39243;BME280;29823;47.404;8.566;2023-05-20T09:18:28;96225.66;;;16.56;100.00
39243;BME280;29823;47.404;8.566;2023-05-20T09:20:56;96231.63;;;16.53;100.00
39243;BME280;29823;47.404;8.566;2023-05-20T09:23:25;96219.56;;;16.89;100.00
39243;BME280;29823;47.404;8.566;2023-05-20T09:25:55;96226.28;;;16.18;100.00
39243;BME280;29823;47.404;8.566;2023-05-20T09:28:23;96222.47;;;16.44;100.00
39243;BME280;29823;47.404;8.566;2023-05-20T09:30:56;96219.63;;;16.84;100.00
39243;BME280;29823;47.404;8.566;2023-05-20T09:33:26;96224.75;;;16.81;100.00
39243;BME280;29823;47.404;8.566;2023-05-20T09:36:02;96225.69;;;17.10;100.00
39243;BME280;29823;47.404;8.566;2023-05-20T09:38:33;96221.41;;;17.47;100.00
39243;BME280;29823;47.404;8.566;2023-05-20T09:41:05;96223.81;;;17.54;100.00
39243;BME280;29823;47.404;8.566;2023-05-20T09:43:35;96210.81;;;17.56;100.00
39243;BME280;29823;47.404;8.566;2023-05-20T09:46:03;96217.97;;;17.37;100.00
39243;BME280;29823;47.404;8.566;2023-05-20T09:48:32;96213.09;;;17.77;100.00
39243;BME280;29823;47.404;8.566;2023-05-20T09:51:03;96219.44;;;17.63;100.00
39243;BME280;29823;47.404;8.566;2023-05-20T09:53:33;96222.66;;;17.65;100.00
39243;BME280;29823;47.404;8.566;2023-05-20T09:56:01;96212.22;;;17.48;100.00
39243;BME280;29823;47.404;8.566;2023-05-20T09:58:29;96203.22;;;17.19;100.00
39243;BME280;29823;47.404;8.566;2023-05-20T10:00:57;96210.50;;;17.62;100.00
39243;BME280;29823;47.404;8.566;2023-05-20T10:03:24;96200.53;;;17.86;100.00
39243;BME280;29823;47.404;8.566;2023-05-20T10:06:11;96199.59;;;17.34;100.00
39243;BME280;29823;47.404;8.566;2023-05-20T10:08:57;96197.25;;;17.22;100.00
39243;BME280;29823;47.404;8.566;2023-05-20T10:11:36;96212.19;;;17.10;100.00
39243;BME280;29823;47.404;8.566;2023-05-20T10:14:24;96199.97;;;17.61;100.00
39243;BME280;29823;47.404;8.566;2023-05-20T10:17:02;96199.81;;;17.42;100.00
39243;BME280;29823;47.404;8.566;2023-05-20T10:19:35;96204.13;;;17.00;100.00
39243;BME280;29823;47.404;8.566;2023-05-20T10:22:04;96203.72;;;16.73;100.00
39243;BME280;29823;47.404;8.566;2023-05-20T10:24:35;96194.59;;;17.17;100.00
39243;BME280;29823;47.404;8.566;2023-05-20T10:27:07;96194.84;;;17.16;100.00
39243;BME280;29823;47.404;8.566;2023-05-20T10:29:42;96205.53;;;16.92;100.00
39243;BME280;29823;47.404;8.566;2023-05-20T10:32:11;96201.97;;;17.45;100.00
39243;BME280;29823;47.404;8.566;2023-05-20T10:34:46;96208.13;;;17.12;100.00
39243;BME280;29823;47.404;8.566;2023-05-20T10:37:26;96206.03;;;16.94;100.00
39243;BME280;29823;47.404;8.566;2023-05-20T10:40:10;96203.97;;;16.76;100.00
39243;BME280;29823;47.404;8.566;2023-05-20T10:42:38;96197.34;;;17.07;100.00
39243;BME280;29823;47.404;8.566;2023-05-20T10:45:08;96193.06;;;17.01;100.00
39243;BME280;29823;47.404;8.566;2023-05-20T10:47:41;96190.00;;;17.13;100.00
39243;BME280;29823;47.404;8.566;2023-05-20T10:50:24;96196.06;;;17.43;100.00
39243;BME280;29823;47.404;8.566;2023-05-20T10:52:53;96197.13;;;17.37;100.00
39243;BME280;29823;47.404;8.566;2023-05-20T10:55:22;96185.84;;;17.30;100.00
39243;BME280;29823;47.404;8.566;2023-05-20T10:57:50;96201.97;;;17.45;100.00
39243;BME280;29823;47.404;8.566;2023-05-20T11:00:20;96191.56;;;17.62;100.00
39243;BME280;29823;47.404;8.566;2023-05-20T11:02:48;96181.09;;;17.51;100.00
39243;BME280;29823;47.404;8.566;2023-05-20T11:05:17;96180.88;;;17.47;100.00
39243;BME280;29823;47.404;8.566;2023-05-20T11:07:46;96181.19;;;17.74;100.00
39243;BME280;29823;47.404;8.566;2023-05-20T11:10:13;96180.09;;;17.75;100.00
39243;BME280;29823;47.404;8.566;2023-05-20T11:12:43;96181.41;;;18.06;100.00
39243;BME280;29823;47.404;8.566;2023-05-20T11:15:11;96170.28;;;17.84;100.00
39243;BME280;29823;47.404;8.566;2023-05-20T11:17:51;96171.00;;;18.18;100.00
39243;BME280;29823;47.404;8.566;2023-05-20T11:20:19;96156.19;;;18.39;100.00
39243;BME280;29823;47.404;8.566;2023-05-20T11:22:48;96184.22;;;17.96;100.00
39243;BME280;29823;47.404;8.566;2023-05-20T11:25:16;96179.88;;;17.33;100.00
39243;BME280;29823;47.404;8.566;2023-05-20T11:27:46;96189.03;;;17.76;100.00
39243;BME280;29823;47.404;8.566;2023-05-20T11:30:15;96175.78;;;17.74;100.00
39243;BME280;29823;47.404;8.566;2023-05-20T11:32:44;96181.03;;;18.18;100.00
39243;BME280;29823;47.404;8.566;2023-05-20T11:35:23;96181.16;;;18.31;100.00
39243;BME280;29823;47.404;8.566;2023-05-20T11:37:55;96170.53;;;18.63;100.00
39243;BME280;29823;47.404;8.566;2023-05-20T11:40:24;96173.81;;;18.60;100.00
39243;BME280;29823;47.404;8.566;2023-05-20T11:43:05;96168.09;;;18.62;100.00
39243;BME280;29823;47.404;8.566;2023-05-20T11:45:40;96172.97;;;19.02;100.00
39243;BME280;29823;47.404;8.566;2023-05-20T11:48:09;96167.19;;;19.08;100.00
39243;BME280;29823;47.404;8.566;2023-05-20T11:50:38;96174.41;;;19.36;100.00
39243;BME280;29823;47.404;8.566;2023-05-20T11:53:07;96175.31;;;18.24;100.00
39243;BME280;29823;47.404;8.566;2023-05-20T11:55:44;96168.78;;;18.25;100.00
39243;BME280;29823;47.404;8.566;2023-05-20T11:58:17;96173.03;;;18.31;100.00
39243;BME280;29823;47.404;8.566;2023-05-20T12:00:45;96175.63;;;18.18;100.00
39243;BME280;29823;47.404;8.566;2023-05-20T12:03:24;96167.44;;;18.70;100.00
39243;BME280;29823;47.404;8.566;2023-05-20T12:05:53;96173.25;;;18.11;100.00
39243;BME280;29823;47.404;8.566;2023-05-20T12:08:21;96159.41;;;18.18;100.00
39243;BME280;29823;47.404;8.566;2023-05-20T12:10:49;96165.00;;;18.73;100.00
39243;BME280;29823;47.404;8.566;2023-05-20T12:13:18;96157.88;;;18.96;100.00
39243;BME280;29823;47.404;8.566;2023-05-20T12:15:47;96157.41;;;19.31;100.00
39243;BME280;29823;47.404;8.566;2023-05-20T12:18:14;96162.97;;;18.60;100.00
39243;BME280;29823;47.404;8.566;2023-05-20T12:20:42;96161.22;;;19.11;100.00
39243;BME280;29823;47.404;8.566;2023-05-20T12:23:10;96167.75;;;18.68;100.00
39243;BME280;29823;47.404;8.566;2023-05-20T12:25:38;96159.50;;;18.78;100.00
39243;BME280;29823;47.404;8.566;2023-05-20T12:28:06;96158.03;;;18.86;98.80
39243;BME280;29823;47.404;8.566;2023-05-20T12:30:35;96145.94;;;19.15;99.85
39243;BME280;29823;47.404;8.566;2023-05-20T12:33:03;96139.66;;;19.01;100.00
39243;BME280;29823;47.404;8.566;2023-05-20T12:35:36;96136.91;;;19.06;98.25
39243;BME280;29823;47.404;8.566;2023-05-20T12:38:04;96134.81;;;18.98;96.27
39243;BME280;29823;47.404;8.566;2023-05-20T12:40:32;96146.13;;;19.05;99.07
39243;BME280;29823;47.404;8.566;2023-05-20T12:43:02;96143.41;;;19.24;94.31
39243;BME280;29823;47.404;8.566;2023-05-20T12:45:30;96145.09;;;19.01;100.00
39243;BME280;29823;47.404;8.566;2023-05-20T12:47:59;96147.22;;;19.23;100.00
39243;BME280;29823;47.404;8.566;2023-05-20T12:50:27;96151.38;;;18.78;100.00
39243;BME280;29823;47.404;8.566;2023-05-20T12:52:55;96135.09;;;19.15;99.92
39243;BME280;29823;47.404;8.566;2023-05-20T12:55:23;96143.16;;;19.57;91.31
39243;BME280;29823;47.404;8.566;2023-05-20T12:57:51;96140.59;;;19.79;91.32
39243;BME280;29823;47.404;8.566;2023-05-20T13:00:19;96123.66;;;19.55;91.45
39243;BME280;29823;47.404;8.566;2023-05-20T13:02:46;96136.19;;;19.83;91.20